Sierra Blanca Regional Airport
KSRR : now visible

Airfield :











YOU CAN JOIN US ON...

 
LOGIN :

Register | Disclaimer

   EN    FR    IT 

 









Legend :    VFR   Marginal VFR   IFR   Intensive IFR   Very Intensive IFR
Visi :
Ceiling :
>= 8 km
>= 3000ft
5 to 8 km
1000 to 3000 ft
1500m to 5 km
500 to 1000 ft
800 to 1500m
200 to 500 ft
< 800m
< 200 ft
Symbols :   Thunderstorms  Fog  Heavy snow  Heavy precipitations  Wind > 20 kt







- Airport Elevation : 6814 ft


KSRR - Sierra Blanca Regional

CURRENT METAR :
  • 210115Z AUTO 30019G26KT 10SM FEW044 BKN055 BKN075 09/M01 A2980 RMK AO2

EXPIRED METARs :
  • 210055Z AUTO 30015G26KT 10SM FEW055 SCT075 SCT085 10/M03 A2977 RMK AO2
  • 210035Z AUTO 25017G24KT 10SM FEW085 13/M08 A2974 RMK AO2
  • 210015Z AUTO 21014G41KT 170V230 10SM FEW085 13/M07 A2975 RMK AO2
  • 202355Z AUTO 28010G18KT 250V310 10SM CLR 14/M07 A2976 RMK AO2
  • 202335Z AUTO 26016G31KT 10SM FEW060 FEW090 14/M07 A2976 RMK AO2
  • 202315Z AUTO 23020G29KT 10SM SCT090 15/M08 A2975 RMK AO2
  • 202255Z AUTO 22024G35KT 10SM SCT090 15/M08 A2975 RMK AO2
  • 202235Z AUTO 23029G37KT 10SM SCT090 15/M08 A2974 RMK AO2
  • 202215Z AUTO 23022G42KT 10SM SCT090 17/M08 A2975 RMK AO2

TAF N/A
KZAB FIR / North America



MET'MAP, your aeronautical weather chart ! - Copyright ORBIFLY December 2007 - Disclaimer

ORBIFLY MET'MAP TEAM :

Programming & Development : Alexandra Zaïnal
Concept & Development : Baudouin d'Aumeries
Co-Development & Prog : Marc-Olivier Méhu
Technical & hardware support : Manuel Goepfert

Contact : metmap@orbifly.com




SOURCES & CREDITS :

   NOAA       Earth
Advisory